TAP1704 LPMA-LPPR
Flight info
| Callsign | TAP1704 |
|---|---|
| Flight time | N/A |
| Altitude | 38000 |
| Route | DEGUN DCT VABEM DCT ASMAR DCT DIRMA DCT ASMOV |
| Aircraft | A319/M-VGDW/C |
Departure
| Time | 2026-05-05 18:09 |
|---|---|
| Airport | Cristiano Ronaldo International Airport (LPMA) |
Arrival
| Time | N/A |
|---|---|
| Airport | Francisco de Sá Carneiro Airport (LPPR) |
| Time | Latitude | Longitude | Altitude | Speed | Heading |
|---|---|---|---|---|---|
| 2026-05-05 17:24 | 32.69358 | -16.77656 | 174 ft | 0 kts | 137° |
| 2026-05-05 17:56 | 32.69366 | -16.77664 | 174 ft | 4 kts | 138° |
| 2026-05-05 17:57 | 32.69387 | -16.77685 | 174 ft | 4 kts | 148° |
| 2026-05-05 17:57 | 32.69411 | -16.77696 | 175 ft | 4 kts | 189° |
| 2026-05-05 17:57 | 32.69422 | -16.77692 | 175 ft | 0 kts | 226° |
| 2026-05-05 18:00 | 32.69414 | -16.77702 | 175 ft | 3 kts | 226° |
| 2026-05-05 18:00 | 32.69393 | -16.77727 | 174 ft | 6 kts | 226° |
| 2026-05-05 18:01 | 32.69360 | -16.77769 | 173 ft | 8 kts | 226° |
| 2026-05-05 18:01 | 32.69316 | -16.77823 | 172 ft | 10 kts | 226° |
| 2026-05-05 18:01 | 32.69288 | -16.77885 | 171 ft | 5 kts | 272° |
| 2026-05-05 18:01 | 32.69288 | -16.77886 | 171 ft | 0 kts | 273° |
| 2026-05-05 18:05 | 32.69288 | -16.77887 | 171 ft | 1 kts | 273° |
| 2026-05-05 18:05 | 32.69290 | -16.77944 | 169 ft | 13 kts | 269° |
| 2026-05-05 18:06 | 32.69255 | -16.78066 | 165 ft | 19 kts | 231° |
| 2026-05-05 18:06 | 32.69185 | -16.78153 | 160 ft | 23 kts | 225° |
| 2026-05-05 18:06 | 32.69044 | -16.78317 | 154 ft | 19 kts | 225° |
| 2026-05-05 18:06 | 32.68960 | -16.78394 | 151 ft | 11 kts | 197° |
| 2026-05-05 18:07 | 32.68897 | -16.78418 | 149 ft | 9 kts | 219° |
| 2026-05-05 18:07 | 32.68906 | -16.78458 | 150 ft | 4 kts | 339° |
| 2026-05-05 18:07 | 32.68929 | -16.78450 | 151 ft | 4 kts | 34° |
| 2026-05-05 18:07 | 32.68942 | -16.78435 | 151 ft | 0 kts | 43° |
| 2026-05-05 18:08 | 32.68987 | -16.78381 | 152 ft | 39 kts | 47° |
| 2026-05-05 18:09 | 32.69387 | -16.77917 | 174 ft | 120 kts | 45° |
| 2026-05-05 18:09 | 32.70111 | -16.77063 | 517 ft | 156 kts | 46° |
| 2026-05-05 18:09 | 32.70759 | -16.75996 | 1298 ft | 168 kts | 69° |
| 2026-05-05 18:09 | 32.70886 | -16.74588 | 2074 ft | 184 kts | 99° |
| 2026-05-05 18:10 | 32.70408 | -16.73067 | 2568 ft | 207 kts | 109° |
| 2026-05-05 18:10 | 32.69864 | -16.71365 | 3019 ft | 232 kts | 108° |
| 2026-05-05 18:10 | 32.69290 | -16.69492 | 3655 ft | 248 kts | 108° |
| 2026-05-05 18:10 | 32.68696 | -16.67527 | 4506 ft | 256 kts | 108° |
| 2026-05-05 18:11 | 32.68090 | -16.65510 | 5353 ft | 264 kts | 108° |
| 2026-05-05 18:11 | 32.67466 | -16.63424 | 6219 ft | 271 kts | 108° |
| 2026-05-05 18:11 | 32.66830 | -16.61289 | 7044 ft | 277 kts | 108° |
| 2026-05-05 18:11 | 32.66507 | -16.59029 | 7860 ft | 282 kts | 86° |
| 2026-05-05 18:12 | 32.66988 | -16.56777 | 8705 ft | 284 kts | 61° |
| 2026-05-05 18:12 | 32.68203 | -16.54923 | 9548 ft | 287 kts | 43° |
| 2026-05-05 18:12 | 32.69624 | -16.53233 | 10336 ft | 294 kts | 43° |
| 2026-05-05 18:12 | 32.71131 | -16.51449 | 10663 ft | 318 kts | 43° |
| 2026-05-05 18:13 | 32.72757 | -16.49525 | 10996 ft | 342 kts | 43° |
| 2026-05-05 18:13 | 32.74479 | -16.47476 | 11554 ft | 355 kts | 43° |
| 2026-05-05 18:13 | 32.76239 | -16.45368 | 12292 ft | 362 kts | 43° |
| 2026-05-05 18:13 | 32.78024 | -16.43224 | 13039 ft | 368 kts | 43° |
| 2026-05-05 18:14 | 32.79838 | -16.41048 | 13745 ft | 374 kts | 43° |
| 2026-05-05 18:14 | 32.81688 | -16.38831 | 14377 ft | 379 kts | 43° |
| 2026-05-05 18:14 | 32.83555 | -16.36591 | 14995 ft | 384 kts | 43° |
| 2026-05-05 18:14 | 32.85444 | -16.34321 | 15605 ft | 388 kts | 43° |
| 2026-05-05 18:15 | 32.87351 | -16.32024 | 16221 ft | 393 kts | 43° |
| 2026-05-05 18:15 | 32.89280 | -16.29696 | 16853 ft | 397 kts | 43° |
| 2026-05-05 18:15 | 32.91391 | -16.27571 | 17444 ft | 398 kts | 29° |
| 2026-05-05 18:15 | 32.93810 | -16.25940 | 18044 ft | 401 kts | 26° |
| 2026-05-05 18:16 | 32.96272 | -16.24318 | 18615 ft | 405 kts | 26° |
| 2026-05-05 18:16 | 32.98752 | -16.22681 | 19154 ft | 409 kts | 26° |
| 2026-05-05 18:16 | 33.01250 | -16.21030 | 19686 ft | 412 kts | 26° |
| 2026-05-05 18:16 | 33.03772 | -16.19363 | 20248 ft | 416 kts | 26° |
| 2026-05-05 18:17 | 33.06308 | -16.17688 | 20787 ft | 419 kts | 26° |
| 2026-05-05 18:17 | 33.08878 | -16.15986 | 21308 ft | 422 kts | 26° |
| 2026-05-05 18:17 | 33.11451 | -16.14277 | 21818 ft | 426 kts | 26° |
| 2026-05-05 18:17 | 33.14050 | -16.12553 | 22326 ft | 429 kts | 26° |
| 2026-05-05 18:18 | 33.16671 | -16.10811 | 22820 ft | 432 kts | 26° |
| 2026-05-05 18:18 | 33.19307 | -16.09057 | 23301 ft | 436 kts | 26° |
| 2026-05-05 18:18 | 33.21970 | -16.07286 | 23763 ft | 439 kts | 25° |
| 2026-05-05 18:18 | 33.24645 | -16.05506 | 24152 ft | 442 kts | 26° |
| 2026-05-05 18:19 | 33.27343 | -16.03710 | 24535 ft | 445 kts | 26° |
| 2026-05-05 18:19 | 33.30055 | -16.01902 | 24928 ft | 448 kts | 26° |
| 2026-05-05 18:19 | 33.32781 | -16.00085 | 25291 ft | 450 kts | 26° |
| 2026-05-05 18:19 | 33.35530 | -15.98253 | 25684 ft | 453 kts | 26° |
| 2026-05-05 18:20 | 33.38291 | -15.96406 | 26071 ft | 456 kts | 26° |
| 2026-05-05 18:20 | 33.41077 | -15.94537 | 26436 ft | 459 kts | 26° |
| 2026-05-05 18:20 | 33.43883 | -15.92654 | 26803 ft | 462 kts | 26° |
| 2026-05-05 18:20 | 33.46698 | -15.90771 | 27151 ft | 465 kts | 26° |
| 2026-05-05 18:21 | 33.49533 | -15.88875 | 27497 ft | 468 kts | 26° |
| 2026-05-05 18:21 | 33.52390 | -15.86962 | 27836 ft | 471 kts | 26° |
| 2026-05-05 18:21 | 33.55257 | -15.85041 | 28165 ft | 474 kts | 26° |
| 2026-05-05 18:21 | 33.58148 | -15.83104 | 28486 ft | 477 kts | 26° |
| 2026-05-05 18:22 | 33.61044 | -15.81161 | 28813 ft | 479 kts | 26° |
| 2026-05-05 18:22 | 33.63964 | -15.79199 | 29130 ft | 482 kts | 26° |
| 2026-05-05 18:22 | 33.66900 | -15.77226 | 29435 ft | 485 kts | 26° |
| 2026-05-05 18:22 | 33.69851 | -15.75244 | 29735 ft | 487 kts | 26° |
| 2026-05-05 18:23 | 33.72818 | -15.73244 | 30033 ft | 490 kts | 26° |
| 2026-05-05 18:23 | 33.75798 | -15.71230 | 30325 ft | 492 kts | 26° |
| 2026-05-05 18:23 | 33.78776 | -15.69216 | 30697 ft | 491 kts | 26° |
| 2026-05-05 18:23 | 33.81753 | -15.67204 | 31084 ft | 490 kts | 26° |
| 2026-05-05 18:24 | 33.84718 | -15.65200 | 31471 ft | 489 kts | 26° |
| 2026-05-05 18:24 | 33.87680 | -15.63195 | 31869 ft | 488 kts | 26° |
| 2026-05-05 18:24 | 33.90619 | -15.61208 | 32290 ft | 486 kts | 26° |
| 2026-05-05 18:24 | 33.93585 | -15.59200 | 32708 ft | 485 kts | 26° |
| 2026-05-05 18:25 | 33.96512 | -15.57215 | 33121 ft | 483 kts | 26° |
| 2026-05-05 18:25 | 33.98488 | -15.55876 | 33397 ft | 482 kts | 26° |
| 2026-05-05 18:25 | 34.02357 | -15.53252 | 33946 ft | 481 kts | 26° |
| 2026-05-05 18:25 | 34.05267 | -15.51275 | 34322 ft | 479 kts | 26° |
| 2026-05-05 18:26 | 34.08170 | -15.49299 | 34670 ft | 479 kts | 26° |
| 2026-05-05 18:26 | 34.11073 | -15.47321 | 35011 ft | 478 kts | 26° |
| 2026-05-05 18:26 | 34.13949 | -15.45328 | 35333 ft | 478 kts | 27° |
| 2026-05-05 18:26 | 34.16780 | -15.43212 | 35639 ft | 479 kts | 29° |
| 2026-05-05 18:27 | 34.19594 | -15.40964 | 35946 ft | 479 kts | 31° |
| 2026-05-05 18:27 | 34.22307 | -15.38712 | 36232 ft | 479 kts | 31° |
| 2026-05-05 18:27 | 34.25077 | -15.36391 | 36517 ft | 479 kts | 31° |
| 2026-05-05 18:27 | 34.27828 | -15.34108 | 36786 ft | 478 kts | 31° |
| 2026-05-05 18:28 | 34.33344 | -15.29627 | 37319 ft | 477 kts | 30° |
| 2026-05-05 18:28 | 34.36114 | -15.27407 | 37583 ft | 477 kts | 30° |
| 2026-05-05 18:28 | 34.38885 | -15.25195 | 37830 ft | 477 kts | 30° |
| 2026-05-05 18:29 | 34.41626 | -15.23006 | 38067 ft | 477 kts | 30° |
| 2026-05-05 18:29 | 34.44425 | -15.20762 | 38150 ft | 477 kts | 30° |
| 2026-05-05 18:29 | 34.49956 | -15.16297 | 38154 ft | 477 kts | 30° |
| 2026-05-05 18:30 | 34.55465 | -15.11835 | 38154 ft | 477 kts | 30° |
| 2026-05-05 18:30 | 34.60985 | -15.07352 | 38155 ft | 476 kts | 30° |
| 2026-05-05 18:31 | 34.66500 | -15.02879 | 38158 ft | 476 kts | 30° |
| 2026-05-05 18:31 | 34.72007 | -14.98414 | 38164 ft | 476 kts | 30° |
| 2026-05-05 18:32 | 34.77524 | -14.93924 | 38163 ft | 476 kts | 30° |
| 2026-05-05 18:32 | 34.82999 | -14.89454 | 38163 ft | 476 kts | 30° |
| 2026-05-05 18:33 | 34.88538 | -14.84936 | 38170 ft | 476 kts | 30° |
| 2026-05-05 18:33 | 34.94044 | -14.80428 | 38175 ft | 477 kts | 30° |
| 2026-05-05 18:34 | 34.99545 | -14.75918 | 38181 ft | 477 kts | 30° |
| 2026-05-05 18:34 | 35.05052 | -14.71406 | 38182 ft | 477 kts | 30° |
| 2026-05-05 18:35 | 35.10561 | -14.66876 | 38187 ft | 477 kts | 30° |
| 2026-05-05 18:35 | 35.15139 | -14.63102 | 38189 ft | 477 kts | 30° |
| 2026-05-05 18:36 | 35.20649 | -14.58557 | 38190 ft | 477 kts | 30° |
| 2026-05-05 18:36 | 35.26154 | -14.54007 | 38189 ft | 477 kts | 30° |
| 2026-05-05 18:37 | 35.31656 | -14.49461 | 38190 ft | 477 kts | 30° |
| 2026-05-05 18:37 | 35.37155 | -14.44906 | 38198 ft | 477 kts | 30° |
| 2026-05-05 18:38 | 35.42656 | -14.40337 | 38198 ft | 477 kts | 30° |
| 2026-05-05 18:38 | 35.48150 | -14.35762 | 38189 ft | 477 kts | 30° |
| 2026-05-05 18:39 | 35.53636 | -14.31193 | 38187 ft | 476 kts | 30° |
| 2026-05-05 18:39 | 35.59118 | -14.26620 | 38188 ft | 476 kts | 30° |
| 2026-05-05 18:40 | 35.64606 | -14.22040 | 38182 ft | 476 kts | 30° |
| 2026-05-05 18:40 | 35.70080 | -14.17451 | 38186 ft | 476 kts | 30° |
| 2026-05-05 18:41 | 35.75552 | -14.12853 | 38186 ft | 476 kts | 30° |
| 2026-05-05 18:41 | 35.81020 | -14.08264 | 38181 ft | 476 kts | 30° |
| 2026-05-05 18:42 | 35.86496 | -14.03672 | 38184 ft | 475 kts | 30° |
| 2026-05-05 18:42 | 35.91956 | -13.99070 | 38188 ft | 475 kts | 30° |
| 2026-05-05 18:43 | 35.97415 | -13.94449 | 38188 ft | 475 kts | 30° |
| 2026-05-05 18:43 | 36.02868 | -13.89835 | 38184 ft | 475 kts | 30° |
| 2026-05-05 18:44 | 36.08322 | -13.85223 | 38183 ft | 475 kts | 30° |
| 2026-05-05 18:44 | 36.13778 | -13.80597 | 38182 ft | 475 kts | 30° |
| 2026-05-05 18:45 | 36.19227 | -13.75955 | 38181 ft | 475 kts | 31° |
| 2026-05-05 18:45 | 36.24674 | -13.71316 | 38182 ft | 475 kts | 30° |
| 2026-05-05 18:46 | 36.30123 | -13.66674 | 38180 ft | 475 kts | 31° |
| 2026-05-05 18:46 | 36.35569 | -13.62021 | 38184 ft | 475 kts | 31° |
| 2026-05-05 18:47 | 36.41004 | -13.57362 | 38183 ft | 475 kts | 31° |
| 2026-05-05 18:47 | 36.46449 | -13.52699 | 38183 ft | 475 kts | 31° |
| 2026-05-05 18:48 | 36.51889 | -13.48035 | 38180 ft | 474 kts | 31° |
| 2026-05-05 18:48 | 36.57318 | -13.43354 | 38175 ft | 474 kts | 31° |
| 2026-05-05 18:49 | 36.62743 | -13.38668 | 38179 ft | 474 kts | 31° |
| 2026-05-05 18:49 | 36.68181 | -13.33985 | 38176 ft | 474 kts | 31° |
| 2026-05-05 18:50 | 36.73604 | -13.29306 | 38176 ft | 474 kts | 31° |
| 2026-05-05 18:50 | 36.79029 | -13.24601 | 38179 ft | 474 kts | 31° |
| 2026-05-05 18:51 | 36.84451 | -13.19885 | 38180 ft | 474 kts | 31° |
| 2026-05-05 18:51 | 36.89870 | -13.15173 | 38180 ft | 474 kts | 31° |
| 2026-05-05 18:52 | 36.95294 | -13.10449 | 38180 ft | 474 kts | 31° |
| 2026-05-05 18:52 | 37.00703 | -13.05718 | 38183 ft | 474 kts | 31° |
| 2026-05-05 18:53 | 37.06079 | -13.01009 | 38181 ft | 474 kts | 31° |
| 2026-05-05 18:53 | 37.11528 | -12.96253 | 38184 ft | 474 kts | 31° |
| 2026-05-05 18:54 | 37.16942 | -12.91512 | 38182 ft | 475 kts | 31° |
| 2026-05-05 18:54 | 37.22347 | -12.86754 | 38171 ft | 475 kts | 31° |
| 2026-05-05 18:55 | 37.27756 | -12.81985 | 38180 ft | 475 kts | 31° |
| 2026-05-05 18:55 | 37.33158 | -12.77216 | 38181 ft | 475 kts | 31° |
| 2026-05-05 18:56 | 37.38562 | -12.72449 | 38181 ft | 475 kts | 31° |
| 2026-05-05 18:56 | 37.43973 | -12.67666 | 38182 ft | 475 kts | 31° |
| 2026-05-05 18:57 | 37.49371 | -12.62873 | 38179 ft | 475 kts | 31° |
| 2026-05-05 18:57 | 37.54781 | -12.58077 | 38185 ft | 475 kts | 31° |
| 2026-05-05 18:58 | 37.60189 | -12.53265 | 38181 ft | 475 kts | 31° |
| 2026-05-05 18:58 | 37.65583 | -12.48446 | 38179 ft | 475 kts | 31° |
| 2026-05-05 18:59 | 37.70953 | -12.43653 | 38182 ft | 475 kts | 31° |
| 2026-05-05 18:59 | 37.76388 | -12.38792 | 38181 ft | 475 kts | 31° |
| 2026-05-05 19:00 | 37.81792 | -12.33949 | 38180 ft | 475 kts | 32° |
| 2026-05-05 19:00 | 37.87183 | -12.29100 | 38172 ft | 476 kts | 32° |
| 2026-05-05 19:01 | 37.92540 | -12.24265 | 38175 ft | 476 kts | 32° |
| 2026-05-05 19:01 | 37.97975 | -12.19373 | 38177 ft | 476 kts | 32° |
| 2026-05-05 19:02 | 38.03377 | -12.14514 | 38173 ft | 476 kts | 32° |
| 2026-05-05 19:02 | 38.08779 | -12.09635 | 38175 ft | 476 kts | 32° |
| 2026-05-05 19:03 | 38.14162 | -12.04744 | 38176 ft | 476 kts | 32° |
| 2026-05-05 19:03 | 38.19507 | -11.99878 | 38174 ft | 475 kts | 32° |
| 2026-05-05 19:04 | 38.24925 | -11.94955 | 38170 ft | 475 kts | 32° |
| 2026-05-05 19:04 | 38.30272 | -11.90087 | 38170 ft | 475 kts | 32° |
| 2026-05-05 19:05 | 38.35651 | -11.85168 | 38169 ft | 475 kts | 32° |
| 2026-05-05 19:05 | 38.41024 | -11.80250 | 38170 ft | 475 kts | 32° |
| 2026-05-05 19:06 | 38.46400 | -11.75325 | 38169 ft | 475 kts | 32° |
| 2026-05-05 19:06 | 38.51768 | -11.70400 | 38166 ft | 475 kts | 32° |
| 2026-05-05 19:07 | 38.56262 | -11.66262 | 38165 ft | 475 kts | 32° |
| 2026-05-05 19:07 | 38.62499 | -11.60514 | 38163 ft | 475 kts | 32° |
| 2026-05-05 19:08 | 38.66997 | -11.56362 | 38166 ft | 475 kts | 32° |
| 2026-05-05 19:08 | 38.72358 | -11.51411 | 38164 ft | 475 kts | 32° |
| 2026-05-05 19:09 | 38.77722 | -11.46440 | 38164 ft | 475 kts | 32° |
| 2026-05-05 19:09 | 38.83080 | -11.41456 | 38164 ft | 475 kts | 32° |
| 2026-05-05 19:10 | 38.88417 | -11.36483 | 38161 ft | 475 kts | 32° |
| 2026-05-05 19:10 | 38.93769 | -11.31498 | 38158 ft | 475 kts | 32° |
| 2026-05-05 19:11 | 38.99123 | -11.26509 | 38158 ft | 475 kts | 32° |
| 2026-05-05 19:11 | 39.04469 | -11.21515 | 38155 ft | 475 kts | 32° |
| 2026-05-05 19:12 | 39.09805 | -11.16499 | 38152 ft | 475 kts | 32° |
| 2026-05-05 19:12 | 39.15139 | -11.11476 | 38155 ft | 475 kts | 32° |
| 2026-05-05 19:13 | 39.20477 | -11.06461 | 38154 ft | 475 kts | 32° |
| 2026-05-05 19:13 | 39.25818 | -11.01427 | 38155 ft | 475 kts | 32° |
| 2026-05-05 19:14 | 39.31154 | -10.96389 | 38161 ft | 475 kts | 32° |
| 2026-05-05 19:14 | 39.36488 | -10.91348 | 38155 ft | 475 kts | 32° |
| 2026-05-05 19:15 | 39.41817 | -10.86297 | 38151 ft | 475 kts | 32° |
| 2026-05-05 19:15 | 39.47144 | -10.81226 | 38149 ft | 475 kts | 32° |
| 2026-05-05 19:16 | 39.52468 | -10.76160 | 38153 ft | 474 kts | 32° |
| 2026-05-05 19:16 | 39.57754 | -10.71125 | 38143 ft | 474 kts | 32° |
| 2026-05-05 19:17 | 39.63064 | -10.66057 | 38147 ft | 474 kts | 32° |
| 2026-05-05 19:17 | 39.68376 | -10.60977 | 38005 ft | 474 kts | 32° |
| 2026-05-05 19:18 | 39.71021 | -10.58441 | 37730 ft | 472 kts | 32° |
| 2026-05-05 19:18 | 39.73664 | -10.55901 | 37462 ft | 472 kts | 32° |
| 2026-05-05 19:18 | 39.76301 | -10.53361 | 37194 ft | 472 kts | 33° |
| 2026-05-05 19:18 | 39.78941 | -10.50812 | 36938 ft | 472 kts | 33° |
| 2026-05-05 19:19 | 39.81584 | -10.48260 | 36673 ft | 473 kts | 33° |
| 2026-05-05 19:19 | 39.84223 | -10.45716 | 36420 ft | 473 kts | 32° |